Time;durP1;ratioP1;P1;durP2;ratioP2;P2;SDS_P1;SDS_P2;PMS_P1;PMS_P2;Temp;Humidity;BMP_temperature;BMP_pressure;BME280_temperature;BME280_humidity;BME280_pressure;Samples;Min_cycle;Max_cycle;Signal;HPM_P1;HPM_P2
2021/08/23 00:01:36;;;;;;;10.50;5.85;;;;;;;;;;4985481;28;20066;-56
2021/08/23 00:04:03;;;;;;;12.57;6.30;;;;;;;;;;4984779;28;20038;-54
2021/08/23 00:06:29;;;;;;;11.13;5.85;;;;;;;;;;5003554;28;20054;-56
2021/08/23 00:08:56;;;;;;;12.02;6.13;;;;;;;;;;4983308;28;20098;-56
2021/08/23 00:11:24;;;;;;;11.10;6.00;;;;;;;;;;4968333;28;20047;-55
2021/08/23 00:13:50;;;;;;;13.35;6.53;;;;;;;;;;4976869;28;20070;-57
2021/08/23 00:16:17;;;;;;;14.25;6.13;;;;;;;;;;5003384;28;20057;-57
2021/08/23 00:18:43;;;;;;;11.82;6.18;;;;;;;;;;4999939;28;20042;-56
2021/08/23 00:21:12;;;;;;;11.43;6.38;;;;;;;;;;4984284;28;20056;-54
2021/08/23 00:23:40;;;;;;;;;;;;;;;;;;4998005;28;20042;-57
2021/08/23 00:26:07;;;;;;;12.02;6.53;;;;;;;;;;5002430;28;19929;-57
2021/08/23 00:28:35;;;;;;;11.30;5.95;;;;;;;;;;4997535;28;20054;-56
2021/08/23 00:31:02;;;;;;;13.85;7.45;;;;;;;;;;4982324;28;20038;-57
2021/08/23 00:33:29;;;;;;;12.60;7.03;;;;;;;;;;4962705;28;20128;-54
2021/08/23 00:35:55;;;;;;;11.10;6.93;;;;;;;;;;4966073;28;20093;-58
2021/08/23 00:38:21;;;;;;;13.80;7.03;;;;;;;;;;4982430;28;20219;-58
2021/08/23 00:40:48;;;;;;;12.57;7.50;;;;;;;;;;5002036;28;20034;-55
2021/08/23 00:43:15;;;;;;;16.40;8.15;;;;;;;;;;5004157;28;20075;-56
2021/08/23 00:45:43;;;;;;;13.52;7.15;;;;;;;;;;4987960;28;20070;-56
2021/08/23 00:48:10;;;;;;;14.20;7.97;;;;;;;;;;5004750;28;20042;-58
2021/08/23 00:50:37;;;;;;;14.27;8.27;;;;;;;;;;4983993;28;20061;-57
2021/08/23 00:53:03;;;;;;;14.88;8.00;;;;;;;;;;4967268;28;20125;-55
2021/08/23 00:55:31;;;;;;;15.10;8.13;;;;;;;;;;4986045;28;20050;-56
2021/08/23 00:57:59;;;;;;;13.73;8.20;;;;;;;;;;4987108;28;20034;-53
2021/08/23 01:00:27;;;;;;;13.13;7.77;;;;;;;;;;4983760;28;20042;-57
2021/08/23 01:02:59;;;;;;;13.38;8.10;;;;;;;;;;5005652;28;20118;-57
2021/08/23 01:05:28;;;;;;;12.40;6.57;;;;;;;;;;5000635;28;20062;-56
2021/08/23 01:07:56;;;;;;;13.20;7.40;;;;;;;;;;5001828;28;20050;-54
2021/08/23 01:10:25;;;;;;;12.68;7.15;;;;;;;;;;4978467;28;20050;-57
2021/08/23 01:12:53;;;;;;;12.85;7.15;;;;;;;;;;4967245;28;20273;-56
2021/08/23 01:15:19;;;;;;;10.90;6.80;;;;;;;;;;4968940;28;20058;-57
2021/08/23 01:17:46;;;;;;;13.60;6.88;;;;;;;;;;5003497;28;20042;-58
2021/08/23 01:20:14;;;;;;;11.00;6.05;;;;;;;;;;4996876;28;20045;-57
2021/08/23 01:22:42;;;;;;;12.50;6.97;;;;;;;;;;4982458;28;20042;-56
2021/08/23 01:25:09;;;;;;;13.32;6.72;;;;;;;;;;4979150;28;20102;-56
2021/08/23 01:27:38;;;;;;;12.65;7.43;;;;;;;;;;4981353;28;20129;-56
2021/08/23 01:30:06;;;;;;;16.35;7.70;;;;;;;;;;4982899;28;20047;-57
2021/08/23 01:32:34;;;;;;;14.60;7.18;;;;;;;;;;4980514;28;20053;-56
2021/08/23 01:35:02;;;;;;;11.10;6.80;;;;;;;;;;4966919;28;20082;-57
2021/08/23 01:37:30;;;;;;;15.13;7.80;;;;;;;;;;4979946;28;20046;-54
2021/08/23 01:39:59;;;;;;;13.85;7.75;;;;;;;;;;4982861;28;20129;-57
2021/08/23 01:42:25;;;;;;;15.57;8.57;;;;;;;;;;4955679;28;20057;-55
2021/08/23 01:44:52;;;;;;;16.52;9.20;;;;;;;;;;4965880;28;20043;-55
2021/08/23 01:47:18;;;;;;;18.33;9.90;;;;;;;;;;4974453;28;20054;-55
2021/08/23 01:49:46;;;;;;;17.38;9.77;;;;;;;;;;4986586;28;20124;-57
2021/08/23 01:52:13;;;;;;;18.45;8.95;;;;;;;;;;4973361;28;20151;-56
2021/08/23 01:54:41;;;;;;;19.63;10.23;;;;;;;;;;4975677;28;20042;-57
2021/08/23 01:57:08;;;;;;;19.45;9.00;;;;;;;;;;4977947;28;20101;-56
2021/08/23 01:59:34;;;;;;;22.92;10.65;;;;;;;;;;4975188;28;20165;-56
2021/08/23 02:02:01;;;;;;;20.67;10.35;;;;;;;;;;4978505;28;20034;-53
2021/08/23 02:04:28;;;;;;;19.15;9.88;;;;;;;;;;4982896;28;20054;-55
2021/08/23 02:06:56;;;;;;;21.15;11.00;;;;;;;;;;4969318;28;20047;-54
2021/08/23 02:09:24;;;;;;;20.55;10.80;;;;;;;;;;4985246;28;20105;-56
2021/08/23 02:11:50;;;;;;;26.23;11.13;;;;;;;;;;4967834;28;20046;-57
2021/08/23 02:14:17;;;;;;;20.33;9.48;;;;;;;;;;4981748;28;20042;-55
2021/08/23 02:16:43;;;;;;;21.85;11.40;;;;;;;;;;4985039;28;20042;-56
2021/08/23 02:19:09;;;;;;;19.80;10.27;;;;;;;;;;4982413;28;20038;-57
2021/08/23 02:21:49;;;;;;;20.13;10.48;;;;;;;;;;4985557;28;20042;-54
2021/08/23 02:24:17;;;;;;;20.60;10.80;;;;;;;;;;4979033;28;20043;-55
2021/08/23 02:26:44;;;;;;;20.92;9.82;;;;;;;;;;4966327;28;20046;-55
2021/08/23 02:29:10;;;;;;;22.50;10.60;;;;;;;;;;4978613;28;20053;-56
2021/08/23 02:31:37;;;;;;;19.63;9.00;;;;;;;;;;4966123;28;20046;-53
2021/08/23 02:34:04;;;;;;;19.50;9.35;;;;;;;;;;4979370;28;20057;-54
2021/08/23 02:36:30;;;;;;;21.25;9.65;;;;;;;;;;4967024;28;20035;-55
2021/08/23 02:38:57;;;;;;;16.83;8.98;;;;;;;;;;4987601;28;20050;-57
2021/08/23 02:41:26;;;;;;;16.90;8.73;;;;;;;;;;4984759;28;20050;-54
2021/08/23 02:43:53;;;;;;;16.90;9.20;;;;;;;;;;4993081;28;20051;-55
2021/08/23 02:46:20;;;;;;;18.75;8.43;;;;;;;;;;4964835;28;20254;-53
2021/08/23 02:48:46;;;;;;;14.30;8.18;;;;;;;;;;4980654;28;20062;-57
2021/08/23 02:51:13;;;;;;;18.15;8.43;;;;;;;;;;4980493;28;20042;-55
2021/08/23 02:53:40;;;;;;;16.25;8.48;;;;;;;;;;4979141;28;20050;-58
2021/08/23 02:56:06;;;;;;;15.70;8.18;;;;;;;;;;4999956;28;20050;-57
2021/08/23 02:58:34;;;;;;;15.60;7.80;;;;;;;;;;4988047;28;20038;-55
2021/08/23 03:01:03;;;;;;;14.80;7.88;;;;;;;;;;4984693;28;20039;-55
2021/08/23 03:03:29;;;;;;;12.30;7.28;;;;;;;;;;4985096;28;20052;-52
2021/08/23 03:05:55;;;;;;;17.10;8.00;;;;;;;;;;4981938;28;20057;-53
2021/08/23 03:08:22;;;;;;;21.02;9.50;;;;;;;;;;4968460;28;20043;-55
2021/08/23 03:10:51;;;;;;;18.33;8.25;;;;;;;;;;4990193;28;20050;-57
2021/08/23 03:13:17;;;;;;;18.35;9.70;;;;;;;;;;4986578;28;20042;-55
2021/08/23 03:15:45;;;;;;;15.90;8.80;;;;;;;;;;4999749;28;20165;-55
2021/08/23 03:18:11;;;;;;;18.83;8.47;;;;;;;;;;4986374;28;20070;-55
2021/08/23 03:20:40;;;;;;;17.67;8.52;;;;;;;;;;5001125;28;20276;-55
2021/08/23 03:23:06;;;;;;;19.70;9.48;;;;;;;;;;4986984;28;20042;-54
2021/08/23 03:25:32;;;;;;;18.23;9.25;;;;;;;;;;4995171;28;20057;-57
2021/08/23 03:27:59;;;;;;;16.27;9.05;;;;;;;;;;4968459;28;20128;-55
2021/08/23 03:30:26;;;;;;;22.73;8.60;;;;;;;;;;4981357;28;20043;-55
2021/08/23 03:32:53;;;;;;;21.73;9.10;;;;;;;;;;4966266;28;20047;-54
2021/08/23 03:35:20;;;;;;;20.30;8.63;;;;;;;;;;4983172;28;20054;-57
2021/08/23 03:37:46;;;;;;;18.92;9.38;;;;;;;;;;5003780;28;20275;-55
2021/08/23 03:40:13;;;;;;;24.70;10.18;;;;;;;;;;5004236;28;20054;-55
2021/08/23 03:42:40;;;;;;;22.50;9.55;;;;;;;;;;4983595;28;20054;-56
2021/08/23 03:45:07;;;;;;;23.42;10.63;;;;;;;;;;4986352;28;20062;-53
2021/08/23 03:47:33;;;;;;;24.88;10.27;;;;;;;;;;4986312;28;20042;-54
2021/08/23 03:50:01;;;;;;;26.92;11.30;;;;;;;;;;4987001;28;20046;-56
2021/08/23 03:52:30;;;;;;;20.33;10.40;;;;;;;;;;4980062;28;20101;-55
2021/08/23 03:54:57;;;;;;;19.55;10.27;;;;;;;;;;4983417;28;20027;-57
2021/08/23 03:57:23;;;;;;;27.13;11.52;;;;;;;;;;4991771;28;20046;-54
2021/08/23 03:59:50;;;;;;;22.63;11.25;;;;;;;;;;4987869;28;20050;-55
2021/08/23 04:02:16;;;;;;;23.67;11.48;;;;;;;;;;4974095;28;20045;-56
2021/08/23 04:04:42;;;;;;;19.20;10.45;;;;;;;;;;4983852;28;20047;-54
2021/08/23 04:07:10;;;;;;;24.52;11.90;;;;;;;;;;4980744;28;20041;-54
2021/08/23 04:09:37;;;;;;;21.30;10.32;;;;;;;;;;4986157;28;20057;-56
2021/08/23 04:12:04;;;;;;;21.90;11.30;;;;;;;;;;4983222;28;20031;-56
2021/08/23 04:14:30;;;;;;;20.23;10.18;;;;;;;;;;4970107;28;20116;-57
2021/08/23 04:16:58;;;;;;;23.58;10.90;;;;;;;;;;4982425;28;20057;-55
2021/08/23 04:19:24;;;;;;;22.17;10.18;;;;;;;;;;4967620;28;20038;-55
2021/08/23 04:21:51;;;;;;;22.58;10.00;;;;;;;;;;4967724;28;20034;-56
2021/08/23 04:24:19;;;;;;;26.50;10.82;;;;;;;;;;4999988;28;20077;-56
2021/08/23 04:26:47;;;;;;;24.75;11.15;;;;;;;;;;4986415;28;20049;-56
2021/08/23 04:29:15;;;;;;;;;;;;;;;;;;4985140;28;20053;-55
2021/08/23 04:31:41;;;;;;;22.53;9.53;;;;;;;;;;4983055;28;19939;-56
2021/08/23 04:34:08;;;;;;;20.88;9.50;;;;;;;;;;4992760;28;20296;-56
2021/08/23 04:36:34;;;;;;;15.65;7.75;;;;;;;;;;5002966;28;20042;-56
2021/08/23 04:39:01;;;;;;;16.90;8.85;;;;;;;;;;5000138;28;20042;-57
2021/08/23 04:41:29;;;;;;;19.90;9.82;;;;;;;;;;4986843;28;20034;-54
2021/08/23 04:43:55;;;;;;;19.23;9.05;;;;;;;;;;4983132;28;20104;-54
2021/08/23 04:46:23;;;;;;;18.63;8.07;;;;;;;;;;5002080;28;20053;-54
2021/08/23 04:48:52;;;;;;;19.13;7.63;;;;;;;;;;4999004;28;20030;-54
2021/08/23 04:51:20;;;;;;;19.23;8.02;;;;;;;;;;4985771;28;20046;-57
2021/08/23 04:53:47;;;;;;;;;;;;;;;;;;4999262;28;20061;-57
2021/08/23 04:56:14;;;;;;;16.40;7.20;;;;;;;;;;4982066;28;19926;-54
2021/08/23 04:58:42;;;;;;;15.57;7.13;;;;;;;;;;4964115;28;20059;-53
2021/08/23 05:01:09;;;;;;;15.37;7.57;;;;;;;;;;5003046;28;20034;-54
2021/08/23 05:03:35;;;;;;;14.55;6.45;;;;;;;;;;5001793;28;20280;-55
2021/08/23 05:06:02;;;;;;;15.15;7.20;;;;;;;;;;4970305;28;20071;-56
2021/08/23 05:08:31;;;;;;;16.65;6.97;;;;;;;;;;4979154;28;20047;-56
2021/08/23 05:10:57;;;;;;;13.50;7.25;;;;;;;;;;4971220;28;20087;-56
2021/08/23 05:13:24;;;;;;;14.80;6.47;;;;;;;;;;4977827;28;20046;-56
2021/08/23 05:15:52;;;;;;;12.98;6.47;;;;;;;;;;4973613;28;20042;-57
2021/08/23 05:18:19;;;;;;;16.13;6.63;;;;;;;;;;4978788;28;20070;-54
2021/08/23 05:20:45;;;;;;;12.65;6.97;;;;;;;;;;4973709;28;20061;-55
2021/08/23 05:23:12;;;;;;;16.50;7.53;;;;;;;;;;4996034;28;20043;-55
2021/08/23 05:25:38;;;;;;;15.32;7.45;;;;;;;;;;4975120;28;20035;-54
2021/08/23 05:28:05;;;;;;;18.85;7.57;;;;;;;;;;4978069;28;20067;-54
2021/08/23 05:30:32;;;;;;;15.02;7.32;;;;;;;;;;4972215;28;20097;-56
2021/08/23 05:33:00;;;;;;;15.93;7.63;;;;;;;;;;4989943;28;20047;-54
2021/08/23 05:35:33;;;;;;;18.55;7.38;;;;;;;;;;4973119;28;20046;-57
2021/08/23 05:38:00;;;;;;;14.07;7.03;;;;;;;;;;4981872;28;20078;-53
2021/08/23 05:40:30;;;;;;;19.48;7.90;;;;;;;;;;4975631;28;20043;-55
2021/08/23 05:42:57;;;;;;;15.13;7.78;;;;;;;;;;4976418;28;20047;-54
2021/08/23 05:45:23;;;;;;;16.85;8.02;;;;;;;;;;4975390;28;20038;-54
2021/08/23 05:47:50;;;;;;;17.88;8.50;;;;;;;;;;4974182;28;20062;-58
2021/08/23 05:50:18;;;;;;;16.63;7.90;;;;;;;;;;4977490;28;20046;-55
2021/08/23 05:52:44;;;;;;;13.65;7.28;;;;;;;;;;4972026;28;20042;-56
2021/08/23 05:55:11;;;;;;;16.73;8.13;;;;;;;;;;4975792;28;20058;-54
2021/08/23 05:57:37;;;;;;;19.17;7.38;;;;;;;;;;4987878;28;20051;-54
2021/08/23 06:00:05;;;;;;;18.98;7.75;;;;;;;;;;4976886;28;20039;-56
2021/08/23 06:02:31;;;;;;;19.30;8.37;;;;;;;;;;4966283;28;20087;-56
2021/08/23 06:04:58;;;;;;;18.02;8.23;;;;;;;;;;4980887;28;20050;-56
2021/08/23 06:07:26;;;;;;;15.40;6.57;;;;;;;;;;4971983;28;20062;-56
2021/08/23 06:09:54;;;;;;;19.30;8.23;;;;;;;;;;4975158;28;20035;-57
2021/08/23 06:12:20;;;;;;;17.58;7.75;;;;;;;;;;4969989;28;20054;-54
2021/08/23 06:14:46;;;;;;;19.88;6.80;;;;;;;;;;4980387;28;20192;-56
2021/08/23 06:17:13;;;;;;;16.85;8.50;;;;;;;;;;4961099;28;20043;-54
2021/08/23 06:19:39;;;;;;;14.95;7.72;;;;;;;;;;4945768;28;20047;-57
2021/08/23 06:22:06;;;;;;;19.85;7.90;;;;;;;;;;4963361;28;20046;-56
2021/08/23 06:24:34;;;;;;;13.95;7.05;;;;;;;;;;4981061;28;20050;-57
2021/08/23 06:27:00;;;;;;;18.10;7.27;;;;;;;;;;4977387;28;20058;-53
2021/08/23 06:29:27;;;;;;;14.55;6.68;;;;;;;;;;4969580;28;20047;-55
2021/08/23 06:31:53;;;;;;;13.55;7.05;;;;;;;;;;4984024;28;20070;-54
2021/08/23 06:34:20;;;;;;;15.25;6.45;;;;;;;;;;4983932;28;20039;-55
2021/08/23 06:36:46;;;;;;;11.68;6.03;;;;;;;;;;4974725;28;20058;-57
2021/08/23 06:39:13;;;;;;;15.02;6.18;;;;;;;;;;4985274;28;20047;-54
2021/08/23 06:41:41;;;;;;;10.90;5.85;;;;;;;;;;4985711;28;20074;-56
2021/08/23 06:44:08;;;;;;;11.40;5.53;;;;;;;;;;4966958;28;20055;-54
2021/08/23 06:46:34;;;;;;;13.20;6.32;;;;;;;;;;4985617;28;20281;-57
2021/08/23 06:49:02;;;;;;;13.65;6.00;;;;;;;;;;4973860;28;20152;-55
2021/08/23 06:51:28;;;;;;;13.57;5.45;;;;;;;;;;4966972;28;20039;-54
2021/08/23 06:53:55;;;;;;;12.18;5.75;;;;;;;;;;4966860;28;20198;-57
2021/08/23 06:56:22;;;;;;;19.50;5.47;;;;;;;;;;5004328;28;20038;-56
2021/08/23 06:58:49;;;;;;;11.65;5.53;;;;;;;;;;4981932;28;20050;-54
2021/08/23 07:01:18;;;;;;;11.07;4.25;;;;;;;;;;4968704;28;20045;-56
2021/08/23 07:03:45;;;;;;;12.65;5.25;;;;;;;;;;4968364;28;20043;-56
2021/08/23 07:06:12;;;;;;;18.35;4.40;;;;;;;;;;5004248;28;20121;-54
2021/08/23 07:08:38;;;;;;;9.98;4.78;;;;;;;;;;4974076;28;20117;-55
2021/08/23 07:11:05;;;;;;;15.25;5.30;;;;;;;;;;4968440;28;20043;-55
2021/08/23 07:13:32;;;;;;;12.23;4.55;;;;;;;;;;4985085;28;20047;-55
2021/08/23 07:16:00;;;;;;;11.00;4.60;;;;;;;;;;4979826;28;20059;-55
2021/08/23 07:18:28;;;;;;;10.27;4.07;;;;;;;;;;4953764;28;20035;-55
2021/08/23 07:20:55;;;;;;;10.85;3.83;;;;;;;;;;4980325;28;20280;-58
2021/08/23 07:23:21;;;;;;;12.77;4.38;;;;;;;;;;4981150;28;20042;-58
2021/08/23 07:25:48;;;;;;;11.02;4.50;;;;;;;;;;4992146;28;20124;-57
2021/08/23 07:28:14;;;;;;;12.50;3.67;;;;;;;;;;4986776;28;20034;-56
2021/08/23 07:30:42;;;;;;;12.07;4.10;;;;;;;;;;4973537;28;20047;-56
2021/08/23 07:33:10;;;;;;;11.70;4.30;;;;;;;;;;4959803;28;20100;-55
2021/08/23 07:35:36;;;;;;;10.63;4.30;;;;;;;;;;4970460;28;20055;-57
2021/08/23 07:38:03;;;;;;;10.38;4.30;;;;;;;;;;4952602;28;20194;-54
2021/08/23 07:40:30;;;;;;;13.40;4.55;;;;;;;;;;4945555;28;20047;-57
2021/08/23 07:42:57;;;;;;;9.55;3.88;;;;;;;;;;4964447;28;20136;-55
2021/08/23 07:45:26;;;;;;;11.70;4.07;;;;;;;;;;4966061;28;20034;-57
2021/08/23 07:47:53;;;;;;;12.85;4.72;;;;;;;;;;4984489;28;20042;-54
2021/08/23 07:50:21;;;;;;;8.45;4.07;;;;;;;;;;4978745;28;20038;-57
2021/08/23 07:52:50;;;;;;;9.52;4.30;;;;;;;;;;4979771;28;20130;-57
2021/08/23 07:55:16;;;;;;;11.55;3.95;;;;;;;;;;4979829;28;20047;-55
2021/08/23 07:57:44;;;;;;;10.48;4.28;;;;;;;;;;4998196;28;20042;-55
2021/08/23 08:00:11;;;;;;;10.73;4.00;;;;;;;;;;4985154;28;20066;-53
2021/08/23 08:02:38;;;;;;;12.50;4.38;;;;;;;;;;4968376;28;20058;-56
2021/08/23 08:05:05;;;;;;;8.75;3.90;;;;;;;;;;4966898;28;20039;-57
2021/08/23 08:07:33;;;;;;;13.20;4.30;;;;;;;;;;4979805;28;20069;-56
2021/08/23 08:09:59;;;;;;;11.35;4.32;;;;;;;;;;4984767;28;20082;-54
2021/08/23 08:12:26;;;;;;;12.57;3.55;;;;;;;;;;4972491;28;20133;-56
2021/08/23 08:14:54;;;;;;;9.75;4.07;;;;;;;;;;4967134;28;20105;-56
2021/08/23 08:17:20;;;;;;;12.00;3.30;;;;;;;;;;4965107;28;20086;-56
2021/08/23 08:19:48;;;;;;;12.10;3.70;;;;;;;;;;4984853;28;20034;-56
2021/08/23 08:22:15;;;;;;;6.38;3.25;;;;;;;;;;4967890;28;20057;-56
2021/08/23 08:24:43;;;;;;;16.35;3.78;;;;;;;;;;4986440;28;20054;-58
2021/08/23 08:27:09;;;;;;;9.90;3.45;;;;;;;;;;4965652;28;20042;-55
2021/08/23 08:29:37;;;;;;;13.98;3.45;;;;;;;;;;4967016;28;20031;-57
2021/08/23 08:32:04;;;;;;;11.35;3.85;;;;;;;;;;4965095;28;20046;-56
2021/08/23 08:34:31;;;;;;;10.32;3.03;;;;;;;;;;4967065;28;20065;-56
2021/08/23 08:36:57;;;;;;;8.27;3.22;;;;;;;;;;4983128;28;20043;-57
2021/08/23 08:39:24;;;;;;;10.88;3.28;;;;;;;;;;4987181;28;20042;-56
2021/08/23 08:41:52;;;;;;;11.15;3.58;;;;;;;;;;4974626;28;20077;-56
2021/08/23 08:44:18;;;;;;;8.23;2.58;;;;;;;;;;4982252;28;20060;-55
2021/08/23 08:46:46;;;;;;;3.50;1.60;;;;;;;;;;5005400;28;20089;-56
2021/08/23 08:49:13;;;;;;;11.48;3.08;;;;;;;;;;4983955;28;20070;-56
2021/08/23 08:51:41;;;;;;;8.90;2.75;;;;;;;;;;5005317;28;20100;-58
2021/08/23 08:54:08;;;;;;;12.07;3.30;;;;;;;;;;4992364;28;20047;-55
2021/08/23 08:56:35;;;;;;;11.63;2.70;;;;;;;;;;5004796;28;20038;-57
2021/08/23 08:59:04;;;;;;;8.75;2.95;;;;;;;;;;4974897;28;20062;-58
2021/08/23 09:01:30;;;;;;;7.32;2.30;;;;;;;;;;4982322;28;20054;-56
2021/08/23 09:04:06;;;;;;;8.27;2.65;;;;;;;;;;4982424;28;20043;-55
2021/08/23 09:06:40;;;;;;;9.25;2.67;;;;;;;;;;4973090;28;20042;-58
2021/08/23 09:09:10;;;;;;;8.70;2.35;;;;;;;;;;4963586;28;20046;-57
2021/08/23 09:11:38;;;;;;;5.10;2.22;;;;;;;;;;4982488;28;20054;-57
2021/08/23 09:14:07;;;;;;;6.88;2.55;;;;;;;;;;4964257;28;20056;-56
2021/08/23 09:16:34;;;;;;;7.03;2.03;;;;;;;;;;4969686;28;20059;-56
2021/08/23 09:19:02;;;;;;;7.15;2.30;;;;;;;;;;4996721;28;20109;-56
2021/08/23 09:21:30;;;;;;;7.32;2.35;;;;;;;;;;4966956;28;20039;-56
2021/08/23 09:23:58;;;;;;;8.82;2.42;;;;;;;;;;4980787;28;20049;-56
2021/08/23 09:26:25;;;;;;;7.30;2.33;;;;;;;;;;4983604;28;20046;-57
2021/08/23 09:28:56;;;;;;;7.93;1.92;;;;;;;;;;4984602;28;20035;-56
2021/08/23 09:31:25;;;;;;;6.68;2.35;;;;;;;;;;4982313;28;20054;-56
2021/08/23 09:33:52;;;;;;;9.10;2.08;;;;;;;;;;4985691;28;20034;-56
2021/08/23 09:36:19;;;;;;;8.75;2.45;;;;;;;;;;4963480;28;20054;-57
2021/08/23 09:38:56;;;;;;;4.10;2.00;;;;;;;;;;4966795;28;20042;-57
2021/08/23 09:41:23;;;;;;;6.20;1.90;;;;;;;;;;4978050;28;20038;-57
2021/08/23 09:43:58;;;;;;;7.43;2.60;;;;;;;;;;4986211;28;20042;-55
2021/08/23 09:46:26;;;;;;;4.40;1.70;;;;;;;;;;4966679;28;20057;-57
2021/08/23 09:48:53;;;;;;;8.67;2.00;;;;;;;;;;4967212;28;20091;-57
2021/08/23 09:51:27;;;;;;;5.37;2.00;;;;;;;;;;4980961;28;20311;-56
2021/08/23 09:54:04;;;;;;;7.13;2.20;;;;;;;;;;4966339;28;20034;-57
2021/08/23 09:56:31;;;;;;;7.13;2.00;;;;;;;;;;4977387;28;20043;-55
2021/08/23 09:58:57;;;;;;;6.63;1.88;;;;;;;;;;4982882;28;20049;-57
2021/08/23 10:01:23;;;;;;;5.72;2.15;;;;;;;;;;4980231;28;20035;-58
2021/08/23 10:03:51;;;;;;;6.50;1.80;;;;;;;;;;4983233;28;20035;-57
2021/08/23 10:06:19;;;;;;;9.75;2.28;;;;;;;;;;4997531;28;20044;-55
2021/08/23 10:08:45;;;;;;;12.90;2.05;;;;;;;;;;5003400;28;20054;-55
2021/08/23 10:11:12;;;;;;;6.97;2.25;;;;;;;;;;4986436;28;20117;-57
2021/08/23 10:13:39;;;;;;;6.07;2.08;;;;;;;;;;4983690;28;20053;-56
2021/08/23 10:16:08;;;;;;;11.68;2.15;;;;;;;;;;4963539;28;20046;-58
2021/08/23 10:18:34;;;;;;;7.60;1.95;;;;;;;;;;4966961;28;20042;-56
2021/08/23 10:21:07;;;;;;;7.22;2.13;;;;;;;;;;4991216;28;20038;-57
2021/08/23 10:23:34;;;;;;;4.75;1.77;;;;;;;;;;4982893;28;20065;-57
2021/08/23 10:26:00;;;;;;;5.85;1.90;;;;;;;;;;4967939;28;20125;-56
2021/08/23 10:28:35;;;;;;;6.53;2.15;;;;;;;;;;4981187;28;20041;-57
2021/08/23 10:31:05;;;;;;;9.50;2.22;;;;;;;;;;4986551;28;20054;-57
2021/08/23 10:33:37;;;;;;;8.23;2.08;;;;;;;;;;4965723;28;20050;-58
2021/08/23 10:36:07;;;;;;;5.35;1.88;;;;;;;;;;4984272;28;20039;-57
2021/08/23 10:38:34;;;;;;;6.05;1.80;;;;;;;;;;4974561;28;20048;-57
2021/08/23 10:41:07;;;;;;;6.05;1.85;;;;;;;;;;4986337;28;20043;-56
2021/08/23 10:43:43;;;;;;;7.65;2.00;;;;;;;;;;4983714;28;20055;-56
2021/08/23 10:46:19;;;;;;;4.55;1.80;;;;;;;;;;4965547;28;20027;-57
2021/08/23 10:48:46;;;;;;;7.97;2.00;;;;;;;;;;4978437;28;20054;-57
2021/08/23 10:51:25;;;;;;;5.78;1.80;;;;;;;;;;4952765;28;20051;-58
2021/08/23 10:53:54;;;;;;;7.65;1.85;;;;;;;;;;4982035;28;20049;-54
2021/08/23 10:56:21;;;;;;;5.22;1.77;;;;;;;;;;4979933;28;20050;-57
2021/08/23 10:58:48;;;;;;;3.90;1.48;;;;;;;;;;4962361;28;20046;-56
2021/08/23 11:01:20;;;;;;;10.10;2.00;;;;;;;;;;4964341;28;20053;-57
2021/08/23 11:03:47;;;;;;;5.38;1.90;;;;;;;;;;4973114;28;20050;-53
2021/08/23 11:06:14;;;;;;;6.75;1.77;;;;;;;;;;5002088;28;20056;-57
2021/08/23 11:08:42;;;;;;;5.07;1.87;;;;;;;;;;4978595;28;20043;-58
2021/08/23 11:11:13;;;;;;;6.88;1.75;;;;;;;;;;4994904;28;20275;-58
2021/08/23 11:13:40;;;;;;;3.47;1.67;;;;;;;;;;4977212;28;20050;-56
2021/08/23 11:16:10;;;;;;;6.20;1.95;;;;;;;;;;4982108;28;20116;-56
2021/08/23 11:18:40;;;;;;;9.85;2.25;;;;;;;;;;4980954;28;20125;-58
2021/08/23 11:21:07;;;;;;;5.45;1.60;;;;;;;;;;4967080;28;20042;-57
2021/08/23 11:23:35;;;;;;;6.60;2.03;;;;;;;;;;4982389;28;20039;-57
2021/08/23 11:26:02;;;;;;;4.47;1.90;;;;;;;;;;4988630;28;20074;-58
2021/08/23 11:28:30;;;;;;;8.00;1.77;;;;;;;;;;4987873;28;20038;-58
2021/08/23 11:30:57;;;;;;;6.03;1.80;;;;;;;;;;4980190;28;20062;-58
2021/08/23 11:33:27;;;;;;;4.70;1.60;;;;;;;;;;4969474;28;20047;-58
2021/08/23 11:35:54;;;;;;;5.38;1.95;;;;;;;;;;4981306;28;20058;-58
2021/08/23 11:38:26;;;;;;;8.52;1.80;;;;;;;;;;4968923;28;20038;-58
2021/08/23 11:40:54;;;;;;;8.05;1.80;;;;;;;;;;4975939;28;20057;-58
2021/08/23 11:43:25;;;;;;;4.40;1.70;;;;;;;;;;4967796;28;20038;-57
2021/08/23 11:45:52;;;;;;;6.15;1.75;;;;;;;;;;4957011;28;20054;-58
2021/08/23 11:48:22;;;;;;;4.90;1.90;;;;;;;;;;4983905;28;20049;-58
2021/08/23 11:50:49;;;;;;;3.13;1.48;;;;;;;;;;4972354;28;20086;-58
2021/08/23 11:53:16;;;;;;;3.88;1.70;;;;;;;;;;4984523;28;20094;-58
2021/08/23 11:55:43;;;;;;;4.05;1.38;;;;;;;;;;4984169;28;20053;-58
2021/08/23 11:58:12;;;;;;;4.78;1.55;;;;;;;;;;4987838;28;20054;-58
2021/08/23 12:00:38;;;;;;;;;;;;;;;;;;4964719;28;20059;-58
2021/08/23 12:03:07;;;;;;;7.00;1.77;;;;;;;;;;4973453;28;19925;-59
2021/08/23 12:05:38;;;;;;;5.80;1.50;;;;;;;;;;4977964;28;20059;-58
2021/08/23 12:08:06;;;;;;;5.22;1.80;;;;;;;;;;4981803;28;20057;-58
2021/08/23 12:10:37;;;;;;;5.50;1.80;;;;;;;;;;4978992;28;20039;-58
2021/08/23 12:13:08;;;;;;;6.35;1.33;;;;;;;;;;4965928;28;20059;-58
2021/08/23 12:15:37;;;;;;;3.75;1.40;;;;;;;;;;4977734;28;20046;-58
2021/08/23 12:18:11;;;;;;;7.82;1.65;;;;;;;;;;4980000;28;20051;-58
2021/08/23 12:20:38;;;;;;;4.03;1.40;;;;;;;;;;4962826;28;20089;-59
2021/08/23 12:23:04;;;;;;;4.45;1.55;;;;;;;;;;4978967;28;20042;-58
2021/08/23 12:25:31;;;;;;;4.75;1.70;;;;;;;;;;4980432;28;20074;-58
2021/08/23 12:27:57;;;;;;;3.22;1.50;;;;;;;;;;4960551;28;20050;-58
2021/08/23 12:30:31;;;;;;;4.22;1.48;;;;;;;;;;4962634;28;20047;-58
2021/08/23 12:32:59;;;;;;;4.30;1.35;;;;;;;;;;4976883;28;20051;-58
2021/08/23 12:35:27;;;;;;;3.40;1.33;;;;;;;;;;4962589;28;20053;-57
2021/08/23 12:37:54;;;;;;;6.63;1.38;;;;;;;;;;4962608;28;20137;-58
2021/08/23 12:40:22;;;;;;;5.78;1.45;;;;;;;;;;4963582;28;20097;-58
2021/08/23 12:42:52;;;;;;;3.38;1.33;;;;;;;;;;4968615;28;20051;-58
2021/08/23 12:45:19;;;;;;;3.63;1.30;;;;;;;;;;4949190;28;20047;-55
2021/08/23 12:47:45;;;;;;;2.95;1.30;;;;;;;;;;4949717;28;20133;-58
2021/08/23 12:50:14;;;;;;;4.50;1.50;;;;;;;;;;4980437;28;20047;-58
2021/08/23 12:52:40;;;;;;;2.72;1.30;;;;;;;;;;4966975;28;20058;-58
2021/08/23 12:55:09;;;;;;;5.40;1.40;;;;;;;;;;4979741;28;20043;-58
2021/08/23 12:57:35;;;;;;;3.72;1.33;;;;;;;;;;4965141;28;20054;-58
2021/08/23 13:00:07;;;;;;;6.10;1.23;;;;;;;;;;4980568;28;20061;-58
2021/08/23 13:02:33;;;;;;;4.78;1.70;;;;;;;;;;4975816;28;20095;-58
2021/08/23 13:05:00;;;;;;;3.58;1.50;;;;;;;;;;4979024;28;20035;-58
2021/08/23 13:07:28;;;;;;;7.30;1.33;;;;;;;;;;4962312;28;20170;-58
2021/08/23 13:09:54;;;;;;;2.17;1.08;;;;;;;;;;4961340;28;20051;-58
2021/08/23 13:12:21;;;;;;;3.75;1.48;;;;;;;;;;4964427;28;20063;-58
2021/08/23 13:14:48;;;;;;;6.57;1.45;;;;;;;;;;4974922;28;20047;-58
2021/08/23 13:17:15;;;;;;;6.80;1.48;;;;;;;;;;4946249;28;20054;-58
2021/08/23 13:19:42;;;;;;;3.15;1.20;;;;;;;;;;4971560;28;20290;-58
2021/08/23 13:22:08;;;;;;;3.55;1.15;;;;;;;;;;4983147;28;20061;-58
2021/08/23 13:24:37;;;;;;;4.15;1.40;;;;;;;;;;4978314;28;20039;-58
2021/08/23 13:27:04;;;;;;;1.92;1.20;;;;;;;;;;4984149;28;20043;-58
2021/08/23 13:29:33;;;;;;;4.28;1.40;;;;;;;;;;4970495;28;20047;-58
2021/08/23 13:32:00;;;;;;;3.28;1.10;;;;;;;;;;4963051;28;20043;-58
2021/08/23 13:34:26;;;;;;;6.20;1.15;;;;;;;;;;4960918;28;20059;-58
2021/08/23 13:36:54;;;;;;;4.97;1.15;;;;;;;;;;4962323;28;20047;-58
2021/08/23 13:39:20;;;;;;;3.00;1.10;;;;;;;;;;4965324;28;20046;-58
2021/08/23 13:41:49;;;;;;;5.78;1.38;;;;;;;;;;4999558;28;20035;-59
2021/08/23 13:44:16;;;;;;;1.75;1.00;;;;;;;;;;4970731;28;20141;-57
2021/08/23 13:46:42;;;;;;;5.18;1.40;;;;;;;;;;4966434;28;20031;-56
2021/08/23 13:49:09;;;;;;;4.40;1.40;;;;;;;;;;4960671;28;20043;-58
2021/08/23 13:51:35;;;;;;;2.65;1.30;;;;;;;;;;4963785;28;20113;-58
2021/08/23 13:54:02;;;;;;;4.10;1.10;;;;;;;;;;4979763;28;20046;-58
2021/08/23 13:56:29;;;;;;;4.60;1.40;;;;;;;;;;4968412;28;20041;-57
2021/08/23 13:58:57;;;;;;;3.03;1.40;;;;;;;;;;4999424;28;20169;-58
2021/08/23 14:01:24;;;;;;;2.15;1.13;;;;;;;;;;4946037;28;20046;-59
2021/08/23 14:03:51;;;;;;;4.28;1.75;;;;;;;;;;4947209;28;20047;-58
2021/08/23 14:06:17;;;;;;;2.80;1.30;;;;;;;;;;4948529;28;20095;-56
2021/08/23 14:08:43;;;;;;;3.50;1.15;;;;;;;;;;4960512;28;20047;-58
2021/08/23 14:11:10;;;;;;;5.82;1.30;;;;;;;;;;4950719;28;20061;-57
2021/08/23 14:13:37;;;;;;;2.50;1.30;;;;;;;;;;4961965;28;20031;-58
2021/08/23 14:16:05;;;;;;;4.50;1.13;;;;;;;;;;4953435;28;20048;-56
2021/08/23 14:18:31;;;;;;;4.85;1.50;;;;;;;;;;4945224;28;20039;-54
2021/08/23 14:20:58;;;;;;;3.70;1.00;;;;;;;;;;4961351;28;20125;-58
2021/08/23 14:23:24;;;;;;;2.75;1.10;;;;;;;;;;4962425;28;20059;-58
2021/08/23 14:25:52;;;;;;;3.15;1.00;;;;;;;;;;4956472;28;20043;-58
2021/08/23 14:28:18;;;;;;;2.80;0.98;;;;;;;;;;4943641;29;20043;-58
2021/08/23 14:30:45;;;;;;;3.35;1.00;;;;;;;;;;4951002;28;20047;-57
2021/08/23 14:33:13;;;;;;;2.47;1.00;;;;;;;;;;4955083;28;20059;-57
2021/08/23 14:35:40;;;;;;;4.50;1.20;;;;;;;;;;4957706;28;20058;-56
2021/08/23 14:38:07;;;;;;;8.17;0.90;;;;;;;;;;4955612;28;20052;-58